Time;durP1;ratioP1;P1;durP2;ratioP2;P2;SDS_P1;SDS_P2;PMS_P1;PMS_P2;Temp;Humidity;BMP_temperature;BMP_pressure;BME280_temperature;BME280_humidity;BME280_pressure;Samples;Min_cycle;Max_cycle;Signal;HPM_P1;HPM_P2
2022/12/09 00:03:25;;;;;;;42.22;19.65;;;;;;;;;;8499179;27;20086;-89
2022/12/09 00:07:28;;;;;;;54.42;22.38;;;;;;;;;;8500303;27;20035;-88
2022/12/09 00:11:32;;;;;;;51.20;23.50;;;;;;;;;;8494013;27;20043;-88
2022/12/09 00:15:35;;;;;;;79.32;32.83;;;;;;;;;;8496036;27;20099;-88
2022/12/09 00:19:38;;;;;;;70.22;28.30;;;;;;;;;;8500719;27;20050;-89
2022/12/09 00:23:41;;;;;;;53.85;22.17;;;;;;;;;;8500558;27;20039;-88
2022/12/09 00:27:45;;;;;;;44.45;20.48;;;;;;;;;;8500265;27;20043;-88
2022/12/09 00:31:48;;;;;;;56.53;22.42;;;;;;;;;;8500176;27;20481;-89
2022/12/09 00:35:51;;;;;;;56.85;23.90;;;;;;;;;;8500257;27;20124;-89
2022/12/09 00:39:54;;;;;;;53.03;22.65;;;;;;;;;;8500084;27;20542;-89
2022/12/09 00:43:59;;;;;;;58.65;24.27;;;;;;;;;;8499916;27;20051;-89
2022/12/09 00:48:01;;;;;;;49.25;22.02;;;;;;;;;;8497782;27;20039;-88
2022/12/09 00:52:04;;;;;;;47.55;20.90;;;;;;;;;;8497515;27;20412;-88
2022/12/09 00:56:07;;;;;;;55.83;22.05;;;;;;;;;;8498602;27;20045;-89
2022/12/09 01:00:12;;;;;;;57.75;22.10;;;;;;;;;;8493158;27;20043;-88
2022/12/09 01:04:16;;;;;;;53.13;24.05;;;;;;;;;;8496330;27;20144;-91
2022/12/09 01:08:18;;;;;;;58.63;24.13;;;;;;;;;;8484304;27;20383;-92
2022/12/09 01:12:21;;;;;;;60.47;23.48;;;;;;;;;;8497489;27;20050;-91
2022/12/09 01:16:28;;;;;;;63.72;24.58;;;;;;;;;;8497855;27;20134;-88
2022/12/09 01:20:31;;;;;;;53.53;22.33;;;;;;;;;;8490781;27;20043;-88
2022/12/09 01:24:34;;;;;;;57.70;23.92;;;;;;;;;;8498545;27;20114;-92
2022/12/09 01:28:39;;;;;;;57.90;25.13;;;;;;;;;;8498250;27;20050;-89
2022/12/09 01:32:43;;;;;;;60.88;24.27;;;;;;;;;;8498395;27;20443;-91
2022/12/09 01:36:47;;;;;;;96.00;32.55;;;;;;;;;;8490323;27;20280;-87
2022/12/09 01:40:49;;;;;;;53.17;22.25;;;;;;;;;;8498013;27;20043;-89
2022/12/09 01:45:30;;;;;;;70.35;27.33;;;;;;;;;;8497518;27;20047;-89
2022/12/09 01:49:37;;;;;;;65.45;26.35;;;;;;;;;;8497837;27;20122;-88
2022/12/09 01:53:44;;;;;;;77.32;30.70;;;;;;;;;;8497655;27;20043;-88
2022/12/09 01:57:47;;;;;;;62.65;26.30;;;;;;;;;;8497583;27;20039;-88
2022/12/09 02:01:53;;;;;;;56.42;24.63;;;;;;;;;;8497297;27;20478;-90
2022/12/09 02:05:57;;;;;;;54.58;21.88;;;;;;;;;;8496941;27;20612;-89
2022/12/09 02:10:00;;;;;;;65.35;22.63;;;;;;;;;;8497604;27;20587;-88
2022/12/09 02:14:08;;;;;;;68.90;31.95;;;;;;;;;;8483469;27;20057;-88
2022/12/09 02:18:19;;;;;;;68.43;31.02;;;;;;;;;;8498385;27;20557;-91
2022/12/09 02:22:28;;;;;;;58.38;24.10;;;;;;;;;;8497650;27;20482;-88
2022/12/09 02:26:38;;;;;;;50.55;21.83;;;;;;;;;;8496682;27;20047;-89
2022/12/09 02:30:49;;;;;;;54.83;24.73;;;;;;;;;;8496734;27;20054;-91
2022/12/09 02:34:58;;;;;;;54.58;23.33;;;;;;;;;;8496807;27;20055;-90
2022/12/09 02:39:01;;;;;;;51.28;23.52;;;;;;;;;;8496654;27;20040;-89
2022/12/09 02:43:08;;;;;;;54.42;24.67;;;;;;;;;;8496248;27;20065;-89
2022/12/09 02:47:14;;;;;;;53.35;24.30;;;;;;;;;;8496551;27;20043;-88
2022/12/09 02:51:20;;;;;;;52.92;22.15;;;;;;;;;;8496545;27;20451;-87
2022/12/09 02:55:24;;;;;;;49.30;21.95;;;;;;;;;;8482813;28;20058;-93
2022/12/09 02:59:27;;;;;;;56.95;23.67;;;;;;;;;;8497222;27;20058;-88
2022/12/09 03:03:32;;;;;;;50.88;22.98;;;;;;;;;;8496321;27;20043;-88
2022/12/09 03:07:43;;;;;;;54.13;25.48;;;;;;;;;;8496315;27;20126;-88
2022/12/09 03:11:49;;;;;;;43.10;21.10;;;;;;;;;;8496220;27;20054;-88
2022/12/09 03:15:58;;;;;;;53.63;22.17;;;;;;;;;;8498112;27;20118;-87
2022/12/09 03:20:05;;;;;;;56.80;24.65;;;;;;;;;;8502837;27;20046;-88
2022/12/09 03:24:12;;;;;;;161.93;58.78;;;;;;;;;;8502532;27;20039;-88
2022/12/09 03:28:20;;;;;;;57.20;25.38;;;;;;;;;;8502441;27;20474;-88
2022/12/09 03:32:26;;;;;;;68.85;30.00;;;;;;;;;;8501444;27;20412;-88
2022/12/09 03:36:34;;;;;;;53.30;23.27;;;;;;;;;;8502360;27;20047;-89
2022/12/09 03:40:40;;;;;;;50.78;23.33;;;;;;;;;;8502139;27;20126;-88
2022/12/09 03:44:49;;;;;;;49.70;22.60;;;;;;;;;;8502125;27;20057;-88
2022/12/09 03:48:51;;;;;;;54.17;21.05;;;;;;;;;;8501818;27;20039;-88
2022/12/09 03:53:01;;;;;;;50.83;21.65;;;;;;;;;;8501685;27;20066;-88
2022/12/09 03:57:06;;;;;;;52.47;23.88;;;;;;;;;;8487605;27;20494;-92
2022/12/09 04:01:10;;;;;;;60.90;25.77;;;;;;;;;;8501297;27;20507;-92
2022/12/09 04:05:13;;;;;;;58.88;25.05;;;;;;;;;;8501063;27;20082;-90
2022/12/09 04:09:16;;;;;;;51.08;22.90;;;;;;;;;;8500990;27;20043;-90
2022/12/09 04:13:20;;;;;;;54.47;22.35;;;;;;;;;;8500716;27;20065;-91
2022/12/09 04:17:23;;;;;;;61.47;27.50;;;;;;;;;;8500667;27;20070;-90
2022/12/09 04:21:25;;;;;;;61.35;26.77;;;;;;;;;;8500594;27;20071;-89
2022/12/09 04:25:28;;;;;;;70.68;30.88;;;;;;;;;;8500913;27;20051;-89
2022/12/09 04:29:32;;;;;;;55.85;23.80;;;;;;;;;;8500254;27;20034;-89
2022/12/09 04:33:35;;;;;;;60.53;26.27;;;;;;;;;;8500535;27;20047;-91
2022/12/09 04:37:38;;;;;;;46.22;21.13;;;;;;;;;;8500126;27;20411;-88
2022/12/09 04:41:41;;;;;;;62.20;24.17;;;;;;;;;;8499886;27;20122;-91
2022/12/09 04:45:45;;;;;;;54.58;23.10;;;;;;;;;;8499727;27;20550;-89
2022/12/09 04:49:48;;;;;;;66.13;25.77;;;;;;;;;;8499560;27;20047;-90
2022/12/09 04:53:51;;;;;;;48.28;21.20;;;;;;;;;;8499963;27;20114;-89
2022/12/09 04:57:54;;;;;;;48.85;20.35;;;;;;;;;;8499625;27;20088;-91
2022/12/09 05:01:58;;;;;;;52.92;21.23;;;;;;;;;;8495512;27;20043;-91
2022/12/09 05:06:04;;;;;;;86.38;31.60;;;;;;;;;;8499105;27;20047;-89
2022/12/09 05:10:08;;;;;;;64.85;24.13;;;;;;;;;;8499121;27;20050;-89
2022/12/09 05:14:11;;;;;;;51.00;23.08;;;;;;;;;;8499043;27;20382;-88
2022/12/09 05:18:15;;;;;;;65.88;31.02;;;;;;;;;;8498985;27;20485;-91
2022/12/09 05:22:18;;;;;;;73.13;30.05;;;;;;;;;;8498691;27;20046;-88
2022/12/09 05:26:22;;;;;;;57.28;26.35;;;;;;;;;;8498943;27;20046;-89
2022/12/09 05:30:25;;;;;;;55.65;23.23;;;;;;;;;;8494984;27;20412;-90
2022/12/09 05:34:29;;;;;;;58.05;27.90;;;;;;;;;;8491761;27;20046;-90
2022/12/09 05:38:32;;;;;;;63.28;28.65;;;;;;;;;;8494180;27;20409;-88
2022/12/09 05:42:35;;;;;;;75.53;31.90;;;;;;;;;;8497825;27;20432;-90
2022/12/09 05:46:38;;;;;;;81.72;35.88;;;;;;;;;;8495395;27;20051;-90
2022/12/09 05:50:42;;;;;;;77.22;32.00;;;;;;;;;;8497933;27;20043;-91
2022/12/09 05:54:45;;;;;;;60.63;27.60;;;;;;;;;;8498216;27;20062;-91
2022/12/09 05:58:48;;;;;;;62.38;27.65;;;;;;;;;;8488199;27;20588;-91
2022/12/09 06:02:50;;;;;;;76.20;30.10;;;;;;;;;;8491298;27;20043;-90
2022/12/09 06:06:54;;;;;;;62.58;27.20;;;;;;;;;;8496878;27;20482;-91
2022/12/09 06:10:57;;;;;;;59.85;26.02;;;;;;;;;;8497209;27;20142;-90
2022/12/09 06:15:00;;;;;;;63.47;26.63;;;;;;;;;;8496833;27;20046;-89
2022/12/09 06:19:06;;;;;;;70.53;29.02;;;;;;;;;;8494707;27;20088;-90
2022/12/09 06:23:11;;;;;;;143.75;41.22;;;;;;;;;;8495954;27;20421;-90
2022/12/09 06:27:13;;;;;;;160.70;61.33;;;;;;;;;;8492194;27;20039;-91
2022/12/09 06:31:17;;;;;;;65.43;29.02;;;;;;;;;;8495733;27;20050;-89
2022/12/09 06:35:19;;;;;;;124.82;40.83;;;;;;;;;;8491484;27;20474;-90
2022/12/09 06:39:24;;;;;;;122.22;40.08;;;;;;;;;;8488422;27;20507;-89
2022/12/09 06:43:27;;;;;;;121.82;44.83;;;;;;;;;;8483596;28;20520;-89
2022/12/09 06:47:30;;;;;;;57.47;25.52;;;;;;;;;;8491484;27;20035;-93
2022/12/09 06:51:33;;;;;;;62.75;26.83;;;;;;;;;;8497919;27;20493;-91
2022/12/09 06:55:37;;;;;;;63.03;25.00;;;;;;;;;;8503388;27;20039;-91
2022/12/09 06:59:40;;;;;;;65.93;27.58;;;;;;;;;;8503297;27;20084;-90
2022/12/09 07:03:44;;;;;;;69.38;27.92;;;;;;;;;;8502824;27;20047;-92
2022/12/09 07:07:51;;;;;;;64.57;27.42;;;;;;;;;;8500165;27;20075;-89
2022/12/09 07:11:56;;;;;;;75.40;31.42;;;;;;;;;;8503003;27;20043;-90
2022/12/09 07:15:58;;;;;;;70.63;33.47;;;;;;;;;;8502412;27;20047;-91
2022/12/09 07:20:01;;;;;;;76.47;34.17;;;;;;;;;;8503743;27;20046;-91
2022/12/09 07:24:05;;;;;;;84.55;36.58;;;;;;;;;;8503127;27;20505;-91
2022/12/09 07:28:09;;;;;;;73.25;32.60;;;;;;;;;;8502250;27;20066;-89
2022/12/09 07:32:12;;;;;;;80.47;35.03;;;;;;;;;;8496352;27;20043;-90
2022/12/09 07:36:15;;;;;;;94.13;37.25;;;;;;;;;;8502237;27;20142;-93
2022/12/09 07:40:17;;;;;;;80.53;33.33;;;;;;;;;;8505399;27;20470;-93
2022/12/09 07:44:22;;;;;;;102.93;43.13;;;;;;;;;;8504805;27;20486;-93
2022/12/09 07:48:25;;;;;;;89.47;38.38;;;;;;;;;;8504663;27;20478;-93
2022/12/09 07:52:28;;;;;;;119.35;45.22;;;;;;;;;;8509995;27;20054;-93
2022/12/09 07:56:32;;;;;;;115.60;43.58;;;;;;;;;;8523679;27;20043;-93
2022/12/09 08:00:36;;;;;;;93.95;40.85;;;;;;;;;;8515473;27;20055;-88
2022/12/09 08:04:44;;;;;;;62.53;26.10;;;;;;;;;;8520832;27;20057;-93
2022/12/09 08:08:55;;;;;;;121.18;49.70;;;;;;;;;;8537130;27;20050;-94
2022/12/09 08:12:57;;;;;;;108.53;41.40;;;;;;;;;;8531987;27;20043;-94
2022/12/09 08:17:04;;;;;;;63.95;28.42;;;;;;;;;;8523364;27;20046;-93
2022/12/09 08:21:09;;;;;;;65.00;28.13;;;;;;;;;;8520419;27;20058;-93
2022/12/09 08:25:12;;;;;;;63.78;26.30;;;;;;;;;;8516671;27;20047;-94
2022/12/09 08:29:17;;;;;;;65.20;27.10;;;;;;;;;;8516454;27;20047;-93
2022/12/09 08:33:21;;;;;;;104.05;38.25;;;;;;;;;;8512987;27;20043;-92
2022/12/09 08:37:24;;;;;;;124.28;44.00;;;;;;;;;;8497818;27;20045;-88
2022/12/09 08:41:34;;;;;;;115.43;44.17;;;;;;;;;;8493927;27;20133;-90
2022/12/09 08:45:39;;;;;;;94.45;36.85;;;;;;;;;;8500205;27;20066;-89
2022/12/09 08:49:44;;;;;;;88.10;40.22;;;;;;;;;;8500586;27;20130;-89
2022/12/09 08:53:47;;;;;;;83.35;37.60;;;;;;;;;;8500104;27;20043;-91
2022/12/09 08:57:49;;;;;;;80.07;34.55;;;;;;;;;;8501369;27;20054;-93
2022/12/09 09:01:53;;;;;;;77.35;36.55;;;;;;;;;;8501449;27;20042;-93
2022/12/09 09:06:02;;;;;;;89.97;40.53;;;;;;;;;;8501279;27;20505;-91
2022/12/09 09:10:06;;;;;;;134.13;52.85;;;;;;;;;;8500903;27;20119;-91
2022/12/09 09:14:12;;;;;;;125.00;51.05;;;;;;;;;;8499169;27;20500;-89
2022/12/09 09:18:15;;;;;;;96.93;43.53;;;;;;;;;;8503200;27;20060;-93
2022/12/09 09:22:20;;;;;;;54.72;29.05;;;;;;;;;;8499361;27;20393;-89
2022/12/09 09:26:26;;;;;;;54.17;29.10;;;;;;;;;;8498879;27;20047;-90
2022/12/09 09:30:29;;;;;;;47.22;25.02;;;;;;;;;;8501418;27;20118;-94
2022/12/09 09:34:32;;;;;;;44.90;26.73;;;;;;;;;;8500999;27;20054;-90
2022/12/09 09:38:36;;;;;;;43.45;24.92;;;;;;;;;;8502257;27;20386;-93
2022/12/09 09:42:47;;;;;;;37.78;20.10;;;;;;;;;;8482564;27;20054;-92
2022/12/09 09:46:52;;;;;;;33.22;17.95;;;;;;;;;;8497118;27;20047;-88
2022/12/09 09:51:01;;;;;;;31.42;17.30;;;;;;;;;;8496034;27;20047;-93
2022/12/09 09:55:14;;;;;;;33.28;18.55;;;;;;;;;;8496548;27;20082;-91
2022/12/09 09:59:27;;;;;;;30.80;17.45;;;;;;;;;;8498253;27;20039;-90
2022/12/09 10:03:43;;;;;;;31.60;16.92;;;;;;;;;;8498157;27;20091;-91
2022/12/09 10:07:52;;;;;;;31.23;17.48;;;;;;;;;;8497841;27;20039;-91
2022/12/09 10:12:00;;;;;;;29.65;16.65;;;;;;;;;;8497688;27;20462;-89
2022/12/09 10:16:13;;;;;;;32.45;17.08;;;;;;;;;;8494262;27;20081;-90
2022/12/09 10:20:19;;;;;;;38.22;18.33;;;;;;;;;;8497248;27;20043;-87
2022/12/09 10:24:26;;;;;;;35.58;18.58;;;;;;;;;;8461611;27;20548;-88
2022/12/09 10:28:34;;;;;;;32.78;16.92;;;;;;;;;;8461718;28;20486;-89
2022/12/09 10:32:38;;;;;;;30.70;16.02;;;;;;;;;;8463191;28;20066;-88
2022/12/09 10:36:44;;;;;;;36.35;17.35;;;;;;;;;;8462939;28;20529;-88
2022/12/09 10:40:56;;;;;;;31.77;16.85;;;;;;;;;;8463043;28;20039;-88
2022/12/09 10:45:07;;;;;;;39.10;18.50;;;;;;;;;;8462706;28;20418;-88
2022/12/09 10:49:19;;;;;;;35.03;17.77;;;;;;;;;;8462720;28;20520;-88
2022/12/09 10:53:22;;;;;;;31.67;16.95;;;;;;;;;;8462804;28;20043;-88
2022/12/09 10:57:27;;;;;;;35.20;16.23;;;;;;;;;;8462644;28;20490;-91
2022/12/09 11:01:49;;;;;;;31.55;16.95;;;;;;;;;;8462714;28;20048;-89
2022/12/09 11:05:58;;;;;;;32.17;16.53;;;;;;;;;;8462644;28;20417;-89
2022/12/09 11:10:16;;;;;;;37.25;16.73;;;;;;;;;;8462460;28;20059;-88
2022/12/09 11:14:24;;;;;;;27.63;14.50;;;;;;;;;;8462484;28;20043;-88
2022/12/09 11:18:31;;;;;;;33.53;15.88;;;;;;;;;;8462418;28;20496;-88
2022/12/09 11:22:37;;;;;;;32.35;16.25;;;;;;;;;;8462308;28;20402;-89
2022/12/09 11:26:40;;;;;;;34.42;15.65;;;;;;;;;;8462320;28;20047;-89
2022/12/09 11:30:51;;;;;;;32.33;15.30;;;;;;;;;;8462027;28;20073;-90
2022/12/09 11:34:55;;;;;;;34.85;15.85;;;;;;;;;;8462162;28;20043;-90
2022/12/09 11:39:10;;;;;;;29.05;13.45;;;;;;;;;;8467107;28;20077;-88
2022/12/09 11:43:14;;;;;;;29.30;14.27;;;;;;;;;;8468481;28;20052;-89
2022/12/09 11:47:26;;;;;;;33.58;16.15;;;;;;;;;;8468111;28;20036;-89
2022/12/09 11:51:33;;;;;;;30.02;15.23;;;;;;;;;;8467984;28;20459;-88
2022/12/09 11:55:42;;;;;;;28.73;14.48;;;;;;;;;;8468079;28;20044;-90
2022/12/09 11:59:49;;;;;;;33.22;15.27;;;;;;;;;;8467806;28;20289;-90
2022/12/09 12:03:56;;;;;;;33.92;16.10;;;;;;;;;;8467537;28;20044;-90
2022/12/09 12:08:14;;;;;;;24.67;14.57;;;;;;;;;;8467493;28;20046;-89
2022/12/09 12:12:24;;;;;;;48.42;23.67;;;;;;;;;;8467316;28;20039;-89
2022/12/09 12:16:33;;;;;;;54.22;28.40;;;;;;;;;;8467246;28;20052;-89
2022/12/09 12:20:49;;;;;;;48.05;22.67;;;;;;;;;;8467039;28;20402;-90
2022/12/09 12:25:22;;;;;;;46.60;16.63;;;;;;;;;;8467009;28;20070;-89
2022/12/09 12:29:35;;;;;;;100.88;41.97;;;;;;;;;;8466786;28;20040;-89
2022/12/09 12:33:51;;;;;;;79.05;25.02;;;;;;;;;;8466728;27;20044;-88
2022/12/09 12:38:04;;;;;;;70.15;27.70;;;;;;;;;;8466488;28;20050;-89
2022/12/09 12:42:22;;;;;;;61.42;25.23;;;;;;;;;;8466385;28;20044;-89
2022/12/09 12:46:34;;;;;;;85.43;36.92;;;;;;;;;;8466044;28;20401;-89
2022/12/09 12:51:02;;;;;;;144.23;48.40;;;;;;;;;;8466171;27;20570;-90
2022/12/09 12:55:20;;;;;;;178.98;54.97;;;;;;;;;;8497435;27;20470;-90
2022/12/09 12:59:34;;;;;;;148.82;46.95;;;;;;;;;;8500253;27;20035;-90
2022/12/09 13:03:47;;;;;;;129.65;42.95;;;;;;;;;;8497958;27;20047;-89
2022/12/09 13:07:56;;;;;;;114.47;49.67;;;;;;;;;;8499250;27;20049;-89
2022/12/09 13:12:05;;;;;;;60.42;29.17;;;;;;;;;;8499644;27;20074;-90
2022/12/09 13:16:16;;;;;;;58.63;23.90;;;;;;;;;;8498674;27;20478;-90
2022/12/09 13:20:34;;;;;;;47.08;23.27;;;;;;;;;;8499287;27;20088;-90
2022/12/09 13:24:43;;;;;;;52.55;25.98;;;;;;;;;;8499019;27;20062;-90
2022/12/09 13:28:51;;;;;;;74.72;30.80;;;;;;;;;;8498706;27;20047;-90
2022/12/09 13:33:25;;;;;;;73.57;31.02;;;;;;;;;;8499042;27;20055;-89
2022/12/09 13:37:59;;;;;;;59.90;29.20;;;;;;;;;;8498941;27;20050;-89
2022/12/09 13:46:23;;;;;;;54.30;27.17;;;;;;;;;;8496181;27;20041;-90
2022/12/09 13:50:33;;;;;;;53.35;22.65;;;;;;;;;;8489838;27;20039;-90
2022/12/09 13:54:47;;;;;;;114.35;50.53;;;;;;;;;;8491472;27;20406;-90
2022/12/09 13:59:29;;;;;;;139.50;57.15;;;;;;;;;;8497304;27;20043;-91
2022/12/09 14:03:35;;;;;;;82.32;40.22;;;;;;;;;;8796268;22;20071;-90
2022/12/09 14:07:47;;;;;;;164.73;64.72;;;;;;;;;;8423007;28;20465;-86
2022/12/09 14:11:51;;;;;;;80.65;36.28;;;;;;;;;;8405771;28;20437;-85
2022/12/09 14:16:17;;;;;;;111.72;42.28;;;;;;;;;;8419477;28;20048;-87
2022/12/09 14:20:24;;;;;;;85.03;39.47;;;;;;;;;;8410871;28;20280;-86
2022/12/09 14:24:34;;;;;;;100.03;40.75;;;;;;;;;;8442666;28;20051;-87
2022/12/09 14:28:58;;;;;;;99.50;41.53;;;;;;;;;;8428862;28;20112;-86
2022/12/09 14:33:02;;;;;;;66.78;30.65;;;;;;;;;;8421781;28;20121;-86
2022/12/09 14:37:36;;;;;;;92.60;39.95;;;;;;;;;;8427669;28;20482;-86
2022/12/09 14:41:49;;;;;;;96.43;41.00;;;;;;;;;;8419259;28;20126;-86
2022/12/09 14:45:55;;;;;;;110.07;42.10;;;;;;;;;;8428242;28;20673;-87
2022/12/09 14:50:08;;;;;;;56.30;25.23;;;;;;;;;;8428807;28;20048;-87
2022/12/09 14:54:15;;;;;;;97.13;41.08;;;;;;;;;;8428790;28;20048;-86
2022/12/09 14:58:23;;;;;;;98.85;43.83;;;;;;;;;;8428810;28;20068;-86
2022/12/09 15:02:28;;;;;;;88.75;37.05;;;;;;;;;;8428799;28;20056;-85
2022/12/09 15:06:32;;;;;;;57.35;22.73;;;;;;;;;;8416678;28;20415;-85
2022/12/09 15:10:38;;;;;;;46.95;23.55;;;;;;;;;;8423757;28;20503;-86
2022/12/09 15:14:44;;;;;;;61.35;26.60;;;;;;;;;;8419022;28;20085;-86
2022/12/09 15:18:47;;;;;;;83.60;38.22;;;;;;;;;;8428038;28;20411;-87
2022/12/09 15:22:52;;;;;;;71.50;31.58;;;;;;;;;;8429447;28;20043;-87
2022/12/09 15:27:00;;;;;;;153.02;54.90;;;;;;;;;;8434608;28;20545;-85
2022/12/09 15:31:19;;;;;;;441.52;175.20;;;;;;;;;;8434611;28;20166;-87
2022/12/09 15:35:24;;;;;;;302.05;106.40;;;;;;;;;;8429725;28;20051;-87
2022/12/09 15:39:32;;;;;;;347.13;126.45;;;;;;;;;;8414678;28;20040;-86
2022/12/09 15:43:39;;;;;;;132.57;51.63;;;;;;;;;;8427835;28;20048;-88
2022/12/09 15:47:49;;;;;;;70.50;29.55;;;;;;;;;;8423871;28;20047;-87
2022/12/09 15:51:55;;;;;;;124.78;43.05;;;;;;;;;;8421607;28;20043;-85
2022/12/09 15:56:01;;;;;;;162.50;54.92;;;;;;;;;;8415650;28;20087;-88
2022/12/09 16:00:07;;;;;;;90.70;36.17;;;;;;;;;;8429551;28;20055;-88
2022/12/09 16:04:19;;;;;;;66.30;29.25;;;;;;;;;;8425375;28;20131;-87
2022/12/09 16:08:32;;;;;;;317.65;96.18;;;;;;;;;;8433556;28;20044;-87
2022/12/09 16:12:38;;;;;;;320.98;90.15;;;;;;;;;;8432134;28;20079;-88
2022/12/09 16:16:46;;;;;;;290.95;106.90;;;;;;;;;;8426125;28;20040;-87
2022/12/09 16:21:21;;;;;;;132.77;50.58;;;;;;;;;;8429340;28;20398;-86
2022/12/09 16:25:28;;;;;;;81.18;32.33;;;;;;;;;;8427472;28;20044;-88
2022/12/09 16:29:37;;;;;;;101.28;37.60;;;;;;;;;;8431629;28;20131;-88
2022/12/09 16:33:46;;;;;;;180.98;58.53;;;;;;;;;;8410448;28;20567;-88
2022/12/09 16:38:18;;;;;;;95.05;41.15;;;;;;;;;;8398564;28;20044;-86
2022/12/09 16:42:29;;;;;;;105.75;44.08;;;;;;;;;;8428803;28;20060;-87
2022/12/09 16:46:39;;;;;;;94.40;41.33;;;;;;;;;;8428216;28;20036;-86
2022/12/09 16:50:47;;;;;;;113.18;40.65;;;;;;;;;;8417166;28;20411;-86
2022/12/09 16:54:55;;;;;;;76.57;30.13;;;;;;;;;;8421740;28;20052;-89
2022/12/09 16:59:00;;;;;;;84.32;35.20;;;;;;;;;;8429647;28;20044;-87
2022/12/09 17:03:08;;;;;;;141.68;41.67;;;;;;;;;;8430391;28;20052;-86
2022/12/09 17:07:11;;;;;;;137.43;48.65;;;;;;;;;;8428671;28;20048;-89
2022/12/09 17:11:17;;;;;;;157.00;53.97;;;;;;;;;;8428211;28;20475;-87
2022/12/09 17:15:23;;;;;;;216.73;69.38;;;;;;;;;;8430300;28;20048;-88
2022/12/09 17:19:29;;;;;;;129.90;46.60;;;;;;;;;;8428868;28;20036;-87
2022/12/09 17:23:34;;;;;;;369.80;117.97;;;;;;;;;;8429303;28;20047;-88
2022/12/09 17:27:41;;;;;;;231.63;83.03;;;;;;;;;;8429688;28;20036;-88
2022/12/09 17:31:48;;;;;;;115.88;46.28;;;;;;;;;;8429678;28;20067;-87
2022/12/09 17:35:52;;;;;;;80.93;33.83;;;;;;;;;;8428797;28;20070;-87
2022/12/09 17:39:56;;;;;;;100.05;39.97;;;;;;;;;;8429230;28;20118;-85
2022/12/09 17:44:03;;;;;;;116.25;46.40;;;;;;;;;;8427916;28;20437;-87
2022/12/09 17:48:10;;;;;;;69.80;30.58;;;;;;;;;;8429259;28;20043;-85
2022/12/09 17:52:14;;;;;;;82.32;34.85;;;;;;;;;;8428319;28;20054;-87
2022/12/09 17:56:20;;;;;;;65.82;31.90;;;;;;;;;;8430054;28;20486;-85
2022/12/09 18:00:25;;;;;;;82.63;40.33;;;;;;;;;;8428381;28;20071;-84
2022/12/09 18:04:30;;;;;;;140.85;48.28;;;;;;;;;;8416288;28;20797;-88
2022/12/09 18:08:33;;;;;;;228.40;71.65;;;;;;;;;;9020710;22;20718;-91
2022/12/09 18:12:37;;;;;;;331.05;109.55;;;;;;;;;;8390929;28;20041;-88
2022/12/09 18:16:47;;;;;;;357.63;120.78;;;;;;;;;;8396128;28;20123;-86
2022/12/09 18:20:51;;;;;;;286.05;78.28;;;;;;;;;;8396558;28;20063;-88
2022/12/09 18:24:54;;;;;;;237.10;73.75;;;;;;;;;;8382615;28;20071;-88
2022/12/09 18:28:58;;;;;;;74.45;33.22;;;;;;;;;;8374176;28;20120;-89
2022/12/09 18:33:03;;;;;;;70.88;31.15;;;;;;;;;;8386344;28;20364;-92
2022/12/09 18:37:07;;;;;;;115.70;47.47;;;;;;;;;;8387093;28;20045;-92
2022/12/09 18:41:11;;;;;;;109.55;45.72;;;;;;;;;;8387071;28;20044;-89
2022/12/09 18:45:15;;;;;;;287.17;95.65;;;;;;;;;;8390902;28;20036;-88
2022/12/09 18:49:22;;;;;;;125.93;47.20;;;;;;;;;;8388578;28;20119;-84
2022/12/09 18:53:27;;;;;;;300.23;59.63;;;;;;;;;;8388345;28;20045;-84
2022/12/09 18:57:30;;;;;;;93.32;29.88;;;;;;;;;;8391524;28;20055;-86
2022/12/09 19:01:37;;;;;;;256.25;77.70;;;;;;;;;;8391896;28;20051;-88
2022/12/09 19:05:43;;;;;;;143.10;32.92;;;;;;;;;;8382384;28;20045;-86
2022/12/09 19:09:48;;;;;;;120.45;36.75;;;;;;;;;;8355734;28;20083;-85
2022/12/09 19:13:52;;;;;;;308.55;96.47;;;;;;;;;;8395433;28;20094;-85
2022/12/09 19:18:00;;;;;;;58.35;22.15;;;;;;;;;;8373662;28;20071;-86
2022/12/09 19:22:07;;;;;;;337.27;101.90;;;;;;;;;;8393822;28;20048;-89
2022/12/09 19:26:15;;;;;;;188.50;69.15;;;;;;;;;;8394886;28;20049;-89
2022/12/09 19:30:18;;;;;;;221.05;65.93;;;;;;;;;;8393836;28;20051;-89
2022/12/09 19:34:29;;;;;;;90.80;33.42;;;;;;;;;;8393620;28;20064;-86
2022/12/09 19:38:38;;;;;;;149.30;59.78;;;;;;;;;;8390269;28;20052;-84
2022/12/09 19:42:45;;;;;;;146.88;61.83;;;;;;;;;;8391108;28;20518;-90
2022/12/09 19:46:51;;;;;;;109.57;36.22;;;;;;;;;;8377644;28;20449;-88
2022/12/09 19:50:55;;;;;;;138.98;35.13;;;;;;;;;;8386272;28;20049;-84
2022/12/09 19:55:02;;;;;;;67.28;26.90;;;;;;;;;;8374700;28;20475;-88
2022/12/09 19:59:07;;;;;;;95.55;35.03;;;;;;;;;;8394231;28;20109;-87
2022/12/09 20:03:12;;;;;;;104.63;38.65;;;;;;;;;;8397413;28;20048;-84
2022/12/09 20:07:17;;;;;;;94.10;30.17;;;;;;;;;;8397815;28;20051;-85
2022/12/09 20:11:26;;;;;;;240.10;61.30;;;;;;;;;;8396353;28;20052;-88
2022/12/09 20:15:31;;;;;;;174.75;44.15;;;;;;;;;;8396448;28;20055;-84
2022/12/09 20:19:44;;;;;;;96.57;33.30;;;;;;;;;;8397668;28;20475;-88
2022/12/09 20:23:55;;;;;;;55.10;20.70;;;;;;;;;;8395312;28;20467;-89
2022/12/09 20:28:04;;;;;;;29.35;10.32;;;;;;;;;;8392222;28;20102;-89
2022/12/09 20:32:20;;;;;;;37.35;13.18;;;;;;;;;;8389885;28;20056;-84
2022/12/09 20:36:37;;;;;;;83.82;24.23;;;;;;;;;;8387115;28;20041;-85
2022/12/09 20:40:46;;;;;;;139.07;33.60;;;;;;;;;;8392417;28;20049;-84
2022/12/09 20:44:54;;;;;;;318.08;85.60;;;;;;;;;;8362257;28;20048;-85
2022/12/09 20:49:11;;;;;;;183.63;53.22;;;;;;;;;;8396765;28;20071;-88
2022/12/09 20:53:18;;;;;;;58.13;19.10;;;;;;;;;;8396902;28;20053;-88
2022/12/09 20:57:26;;;;;;;160.93;43.08;;;;;;;;;;8397589;28;20124;-91
2022/12/09 21:01:35;;;;;;;58.90;20.83;;;;;;;;;;8396917;28;20040;-87
2022/12/09 21:05:40;;;;;;;67.72;25.58;;;;;;;;;;8396480;28;20037;-91
2022/12/09 21:09:49;;;;;;;33.17;13.77;;;;;;;;;;8396711;28;20057;-89
2022/12/09 21:13:55;;;;;;;52.13;22.95;;;;;;;;;;8397311;28;20040;-90
2022/12/09 21:18:08;;;;;;;30.00;14.20;;;;;;;;;;8398179;28;20381;-93
2022/12/09 21:22:12;;;;;;;67.85;24.88;;;;;;;;;;8388273;28;20056;-92
2022/12/09 21:26:19;;;;;;;32.72;14.02;;;;;;;;;;8389699;28;20044;-83
2022/12/09 21:30:26;;;;;;;19.52;8.82;;;;;;;;;;8395822;28;20037;-91
2022/12/09 21:34:32;;;;;;;9.30;5.95;;;;;;;;;;8396650;28;20052;-95
2022/12/09 21:38:38;;;;;;;23.70;10.75;;;;;;;;;;8395957;28;20119;-84
2022/12/09 21:42:43;;;;;;;23.95;8.45;;;;;;;;;;8397657;28;20044;-90
2022/12/09 21:46:52;;;;;;;31.65;13.05;;;;;;;;;;8387472;28;20052;-91
2022/12/09 21:50:58;;;;;;;11.60;6.30;;;;;;;;;;8390531;28;20128;-83
2022/12/09 21:55:02;;;;;;;22.90;9.63;;;;;;;;;;8387211;28;20044;-90
2022/12/09 21:59:06;;;;;;;25.00;11.23;;;;;;;;;;8402359;28;20080;-83
2022/12/09 22:03:09;;;;;;;67.68;20.98;;;;;;;;;;8399678;28;20099;-85
2022/12/09 22:07:14;;;;;;;28.58;10.80;;;;;;;;;;8386198;28;20056;-86
2022/12/09 22:11:19;;;;;;;16.88;9.20;;;;;;;;;;8402267;28;20056;-92
2022/12/09 22:15:22;;;;;;;21.95;8.73;;;;;;;;;;8402570;28;20041;-92
2022/12/09 22:19:26;;;;;;;13.80;7.18;;;;;;;;;;8403196;28;20910;-83
2022/12/09 22:23:30;;;;;;;24.10;10.45;;;;;;;;;;8398665;28;20041;-84
2022/12/09 22:27:33;;;;;;;30.67;12.45;;;;;;;;;;8383731;28;20045;-91
2022/12/09 22:31:38;;;;;;;21.70;8.93;;;;;;;;;;8383563;28;20071;-84
2022/12/09 22:35:41;;;;;;;19.55;10.20;;;;;;;;;;8399000;28;20036;-81
2022/12/09 22:39:45;;;;;;;25.63;11.48;;;;;;;;;;8398501;28;20049;-91
2022/12/09 22:43:49;;;;;;;22.92;10.82;;;;;;;;;;8398805;28;20078;-89
2022/12/09 22:47:53;;;;;;;14.48;7.40;;;;;;;;;;8397921;28;20044;-84
2022/12/09 22:51:56;;;;;;;21.63;11.45;;;;;;;;;;8400475;28;20040;-81
2022/12/09 22:56:00;;;;;;;20.70;8.27;;;;;;;;;;8401446;28;20048;-85
2022/12/09 23:00:10;;;;;;;24.33;11.55;;;;;;;;;;8401011;28;20056;-91
2022/12/09 23:04:17;;;;;;;24.25;10.30;;;;;;;;;;8414134;28;20083;-90
2022/12/09 23:08:21;;;;;;;13.60;7.43;;;;;;;;;;8399211;28;20131;-91
2022/12/09 23:12:25;;;;;;;59.80;23.38;;;;;;;;;;8398209;28;20080;-82
2022/12/09 23:16:28;;;;;;;82.07;29.17;;;;;;;;;;8384096;28;20404;-83
2022/12/09 23:20:32;;;;;;;19.00;9.82;;;;;;;;;;8399081;28;20076;-83
2022/12/09 23:24:36;;;;;;;35.00;12.80;;;;;;;;;;8384394;28;20465;-84
2022/12/09 23:28:41;;;;;;;26.20;11.82;;;;;;;;;;8397606;28;20040;-91
2022/12/09 23:32:45;;;;;;;26.17;11.07;;;;;;;;;;8398180;28;20408;-91
2022/12/09 23:36:48;;;;;;;21.23;10.73;;;;;;;;;;8402645;28;20048;-88
2022/12/09 23:40:51;;;;;;;25.40;12.25;;;;;;;;;;8401991;28;20041;-89
2022/12/09 23:44:55;;;;;;;18.70;10.55;;;;;;;;;;8402141;28;20048;-90
2022/12/09 23:48:58;;;;;;;22.42;11.02;;;;;;;;;;8402098;28;20048;-88
2022/12/09 23:53:01;;;;;;;18.55;10.50;;;;;;;;;;8403902;28;20048;-89
2022/12/09 23:57:04;;;;;;;24.25;9.80;;;;;;;;;;8402255;28;20120;-83
